Time;durP1;ratioP1;P1;durP2;ratioP2;P2;SDS_P1;SDS_P2;PMS_P1;PMS_P2;Temp;Humidity;BMP_temperature;BMP_pressure;BME280_temperature;BME280_humidity;BME280_pressure;Samples;Min_cycle;Max_cycle;Signal;HPM_P1;HPM_P2
2022/07/25 00:00:20;;;;;;;2.57;2.37;;;19.80;99.90;;;;;;5009843;28;20910;-49
2022/07/25 00:02:46;;;;;;;2.73;2.50;;;19.80;99.90;;;;;;5004109;28;20487;-49
2022/07/25 00:05:14;;;;;;;2.50;2.20;;;19.70;99.90;;;;;;5012037;28;20471;-50
2022/07/25 00:07:41;;;;;;;2.00;1.90;;;19.80;99.90;;;;;;5014031;28;20463;-50
2022/07/25 00:10:08;;;;;;;2.60;2.40;;;19.70;99.90;;;;;;5011094;28;20518;-49
2022/07/25 00:12:35;;;;;;;2.37;2.17;;;19.70;99.90;;;;;;5010570;28;20525;-50
2022/07/25 00:15:02;;;;;;;2.60;2.40;;;19.70;99.90;;;;;;5011731;28;20463;-50
2022/07/25 00:17:28;;;;;;;3.60;2.40;;;19.70;99.90;;;;;;5012783;28;20530;-49
2022/07/25 00:19:55;;;;;;;2.10;2.00;;;19.70;99.90;;;;;;5007266;28;20910;-50
2022/07/25 00:22:23;;;;;;;2.23;2.03;;;19.70;99.90;;;;;;5020840;28;20464;-49
2022/07/25 00:24:50;;;;;;;3.93;2.30;;;19.70;99.90;;;;;;5011508;28;21027;-50
2022/07/25 00:27:16;;;;;;;3.10;2.57;;;19.70;99.90;;;;;;5012842;28;20454;-49
2022/07/25 00:29:43;;;;;;;1.80;1.70;;;19.70;99.90;;;;;;5011592;28;20510;-50
2022/07/25 00:32:09;;;;;;;2.60;2.20;;;19.70;99.90;;;;;;5011977;28;20521;-50
2022/07/25 00:34:36;;;;;;;2.50;2.30;;;19.70;99.90;;;;;;5006516;28;20475;-49
2022/07/25 00:37:03;;;;;;;7.80;2.23;;;19.70;99.90;;;;;;5012341;28;20944;-49
2022/07/25 00:39:31;;;;;;;7.57;2.20;;;19.70;99.90;;;;;;5010906;28;20496;-50
2022/07/25 00:41:57;;;;;;;2.03;1.93;;;19.70;99.90;;;;;;5010617;28;20490;-50
2022/07/25 00:44:25;;;;;;;2.07;1.97;;;19.70;99.90;;;;;;5011742;28;20537;-50
2022/07/25 00:46:52;;;;;;;1.90;1.80;;;19.80;99.90;;;;;;5008191;28;20870;-50
2022/07/25 00:49:18;;;;;;;3.50;2.00;;;19.70;99.90;;;;;;5013504;28;20816;-49
2022/07/25 00:51:45;;;;;;;2.00;1.90;;;19.70;99.90;;;;;;5006020;28;20509;-49
2022/07/25 00:54:12;;;;;;;1.87;1.70;;;19.70;99.90;;;;;;5009246;28;21004;-49
2022/07/25 00:56:41;;;;;;;4.60;1.97;;;19.70;99.90;;;;;;5012574;28;20467;-50
2022/07/25 00:59:08;;;;;;;2.20;2.10;;;19.80;99.90;;;;;;5008387;28;20516;-49
2022/07/25 01:01:35;;;;;;;1.67;1.57;;;19.80;99.90;;;;;;5010925;28;20463;-49
2022/07/25 01:04:02;;;;;;;1.60;1.50;;;19.80;99.90;;;;;;5011246;28;20499;-49
2022/07/25 01:06:29;;;;;;;1.90;1.80;;;19.80;99.90;;;;;;5010246;28;20819;-49
2022/07/25 01:08:57;;;;;;;2.37;1.80;;;19.80;99.90;;;;;;5007924;28;20517;-49
2022/07/25 01:11:24;;;;;;;1.73;1.73;;;19.80;99.90;;;;;;5014463;28;20825;-50
2022/07/25 01:13:52;;;;;;;2.00;1.90;;;19.80;99.90;;;;;;5010585;28;20537;-49
2022/07/25 01:16:19;;;;;;;1.87;1.77;;;19.80;99.90;;;;;;5013204;28;20846;-50
2022/07/25 01:18:45;;;;;;;2.00;1.87;;;19.80;99.90;;;;;;5009958;28;20460;-50
2022/07/25 01:21:13;;;;;;;2.80;1.60;;;19.80;99.90;;;;;;5009380;28;20470;-50
2022/07/25 01:23:40;;;;;;;1.50;1.40;;;19.80;99.90;;;;;;5011921;28;20553;-50
2022/07/25 01:26:07;;;;;;;1.87;1.77;;;19.80;99.90;;;;;;5013490;28;20501;-49
2022/07/25 01:28:34;;;;;;;2.40;1.93;;;19.70;99.90;;;;;;5014614;28;20533;-49
2022/07/25 01:31:00;;;;;;;1.90;1.80;;;19.70;99.90;;;;;;5009184;28;20456;-50
2022/07/25 01:33:27;;;;;;;1.70;1.60;;;19.60;99.90;;;;;;5012122;28;20545;-49
2022/07/25 01:35:53;;;;;;;1.80;1.70;;;19.60;99.90;;;;;;5006362;28;20494;-50
2022/07/25 01:38:21;;;;;;;3.00;1.97;;;19.60;99.90;;;;;;5003754;28;20467;-50
2022/07/25 01:40:48;;;;;;;1.60;1.50;;;19.60;1.40;;;;;;5011418;28;20484;-49
2022/07/25 01:43:15;;;;;;;3.57;1.50;;;19.60;99.90;;;;;;5008688;28;20482;-50
2022/07/25 01:45:41;;;;;;;2.13;2.03;;;19.60;99.90;;;;;;5021941;28;20845;-50
2022/07/25 01:48:08;;;;;;;2.10;2.00;;;19.60;99.90;;;;;;5010151;28;20467;-50
2022/07/25 01:50:35;;;;;;;4.10;2.00;;;19.50;1.40;;;;;;5006160;28;20952;-49
2022/07/25 01:53:01;;;;;;;2.10;2.00;;;19.50;99.90;;;;;;5008705;28;20533;-50
2022/07/25 01:55:29;;;;;;;1.93;1.80;;;19.50;99.90;;;;;;5012301;28;20891;-49
2022/07/25 01:57:56;;;;;;;2.10;1.90;;;19.50;99.90;;;;;;5006713;28;20469;-49
2022/07/25 02:00:23;;;;;;;10.13;1.60;;;19.40;99.90;;;;;;5024034;28;20478;-50
2022/07/25 02:03:28;;;;;;;1.77;1.67;;;19.40;1.40;;;;;;5009469;28;20496;-49
2022/07/25 02:05:36;;;;;;;2.90;1.70;;;19.40;99.90;;;;;;5010785;28;20448;-50
2022/07/25 02:08:03;;;;;;;1.90;1.80;;;19.40;99.90;;;;;;5005436;28;20471;-49
2022/07/25 02:10:32;;;;;;;2.03;1.93;;;19.40;99.90;;;;;;5010450;28;20455;-54
2022/07/25 02:13:00;;;;;;;1.90;1.80;;;19.30;99.90;;;;;;5009739;28;20509;-53
2022/07/25 02:15:26;;;;;;;2.10;1.90;;;19.30;99.90;;;;;;5011494;28;20467;-54
2022/07/25 02:17:53;;;;;;;1.80;1.70;;;19.30;99.90;;;;;;5008975;28;20540;-53
2022/07/25 02:20:19;;;;;;;2.20;2.00;;;19.20;99.90;;;;;;5020235;28;20513;-53
2022/07/25 02:22:46;;;;;;;1.47;1.37;;;19.20;99.90;;;;;;5009960;28;20887;-53
2022/07/25 02:25:13;;;;;;;4.00;2.20;;;19.20;99.90;;;;;;5007951;28;20526;-53
2022/07/25 02:27:40;;;;;;;1.83;1.73;;;19.10;99.90;;;;;;5009920;28;20465;-54
2022/07/25 02:30:09;;;;;;;2.07;1.90;;;19.20;99.90;;;;;;5009504;28;20509;-53
2022/07/25 02:32:35;;;;;;;3.57;2.17;;;19.20;99.90;;;;;;5011661;28;21024;-53
2022/07/25 02:35:02;;;;;;;2.07;1.97;;;19.10;99.90;;;;;;5009990;28;20455;-53
2022/07/25 02:37:29;;;;;;;2.17;1.77;;;19.10;99.90;;;;;;5009638;28;20467;-53
2022/07/25 02:39:55;;;;;;;2.50;2.30;;;19.00;99.90;;;;;;5009919;28;20546;-53
2022/07/25 02:42:22;;;;;;;3.43;1.67;;;19.10;99.90;;;;;;5013053;28;20526;-54
2022/07/25 02:44:50;;;;;;;3.13;2.40;;;19.00;99.90;;;;;;5009418;28;20521;-53
2022/07/25 02:47:16;;;;;;;1.87;1.70;;;19.00;99.90;;;;;;5009534;28;20502;-54
2022/07/25 02:49:43;;;;;;;3.67;1.70;;;19.00;99.90;;;;;;5003365;28;20521;-54
2022/07/25 02:52:10;;;;;;;2.13;1.70;;;19.00;99.90;;;;;;5008520;28;20514;-53
2022/07/25 02:54:36;;;;;;;1.93;1.80;;;18.90;99.90;;;;;;5008400;28;20484;-52
2022/07/25 02:57:03;;;;;;;2.20;2.00;;;18.90;99.90;;;;;;5011087;28;20538;-54
2022/07/25 02:59:30;;;;;;;1.77;1.70;;;18.80;99.90;;;;;;5008083;28;20576;-53
2022/07/25 03:01:58;;;;;;;2.00;1.90;;;18.80;99.90;;;;;;5012717;28;20619;-53
2022/07/25 03:04:24;;;;;;;1.80;1.70;;;18.70;99.90;;;;;;5007794;28;20491;-54
2022/07/25 03:06:51;;;;;;;2.20;2.10;;;18.70;99.90;;;;;;5012004;28;20448;-53
2022/07/25 03:09:17;;;;;;;8.63;2.00;;;18.70;99.90;;;;;;5012151;28;20459;-53
2022/07/25 03:11:44;;;;;;;1.97;1.80;;;18.70;99.90;;;;;;5017934;28;20528;-53
2022/07/25 03:14:11;;;;;;;4.90;1.80;;;18.70;99.90;;;;;;5006410;28;20483;-53
2022/07/25 03:16:38;;;;;;;2.40;2.30;;;18.70;99.90;;;;;;5009081;28;20463;-54
2022/07/25 03:19:09;;;;;;;4.53;1.70;;;18.70;99.90;;;;;;5009724;28;20533;-54
2022/07/25 03:21:35;;;;;;;2.00;1.90;;;18.70;99.90;;;;;;5010232;28;20916;-53
2022/07/25 03:24:02;;;;;;;3.23;2.70;;;18.70;99.90;;;;;;5011809;28;21074;-52
2022/07/25 03:26:28;;;;;;;1.83;1.73;;;18.70;99.90;;;;;;5017152;28;20468;-55
2022/07/25 03:28:55;;;;;;;2.03;1.93;;;18.70;99.90;;;;;;5008078;28;20522;-52
2022/07/25 03:31:22;;;;;;;4.77;2.10;;;18.70;99.90;;;;;;5008363;28;20513;-52
2022/07/25 03:33:48;;;;;;;7.83;1.63;;;18.70;99.90;;;;;;5011289;28;20484;-53
2022/07/25 03:36:16;;;;;;;2.53;2.17;;;18.70;99.90;;;;;;5005397;28;20819;-56
2022/07/25 03:38:44;;;;;;;2.63;1.70;;;18.70;99.90;;;;;;5012654;28;20474;-53
2022/07/25 03:41:12;;;;;;;1.90;1.70;;;18.60;99.90;;;;;;5015581;28;20487;-52
2022/07/25 03:43:38;;;;;;;5.37;1.93;;;18.60;99.90;;;;;;5015565;28;20468;-53
2022/07/25 03:46:05;;;;;;;5.43;2.20;;;18.60;99.90;;;;;;5008261;28;20465;-53
2022/07/25 03:48:31;;;;;;;2.50;2.03;;;18.60;99.90;;;;;;5010873;28;20464;-54
2022/07/25 03:50:58;;;;;;;2.47;2.27;;;18.70;99.90;;;;;;5021324;28;20467;-53
2022/07/25 03:53:26;;;;;;;1.83;1.73;;;18.70;99.90;;;;;;5020767;28;20537;-53
2022/07/25 03:55:52;;;;;;;2.40;2.20;;;18.70;99.90;;;;;;5012354;28;20463;-53
2022/07/25 03:58:19;;;;;;;2.80;1.97;;;18.70;99.90;;;;;;5012455;28;20555;-49
2022/07/25 04:00:47;;;;;;;3.80;2.10;;;18.70;99.90;;;;;;5007911;28;20849;-49
2022/07/25 04:03:14;;;;;;;2.90;2.30;;;18.70;99.90;;;;;;5029862;22;20500;-52
2022/07/25 04:05:41;;;;;;;7.13;2.10;;;18.70;99.90;;;;;;5032007;28;20968;-51
2022/07/25 04:08:08;;;;;;;2.03;1.93;;;18.60;99.90;;;;;;5027164;28;20459;-52
2022/07/25 04:10:36;;;;;;;1.83;1.63;;;18.60;99.90;;;;;;5033064;28;20525;-52
2022/07/25 04:13:03;;;;;;;2.27;2.17;;;18.60;99.90;;;;;;5034338;28;20483;-52
2022/07/25 04:15:29;;;;;;;1.93;1.83;;;18.60;99.90;;;;;;5033044;28;20467;-51
2022/07/25 04:17:56;;;;;;;2.57;2.17;;;18.60;99.90;;;;;;5033094;28;20466;-52
2022/07/25 04:20:22;;;;;;;6.93;2.50;;;18.60;99.90;;;;;;5031894;28;20552;-52
2022/07/25 04:22:49;;;;;;;4.50;1.93;;;18.60;99.90;;;;;;5030695;28;20462;-52
2022/07/25 04:25:16;;;;;;;3.00;2.13;;;18.70;99.90;;;;;;5032040;28;20459;-51
2022/07/25 04:27:44;;;;;;;4.57;2.77;;;18.70;99.90;;;;;;5032068;28;20501;-52
2022/07/25 04:30:12;;;;;;;2.80;2.50;;;18.70;99.90;;;;;;5031121;28;20940;-52
2022/07/25 04:32:38;;;;;;;3.13;2.20;;;18.70;99.90;;;;;;5030295;28;20490;-51
2022/07/25 04:35:06;;;;;;;3.57;2.20;;;18.80;99.90;;;;;;5030804;28;20508;-51
2022/07/25 04:37:34;;;;;;;5.43;1.87;;;18.80;99.90;;;;;;5031326;28;20467;-52
2022/07/25 04:40:01;;;;;;;2.50;2.40;;;18.90;99.90;;;;;;5031952;28;20467;-51
2022/07/25 04:42:28;;;;;;;5.53;2.00;;;19.00;99.90;;;;;;5032840;28;20485;-51
2022/07/25 04:44:56;;;;;;;4.07;2.10;;;19.00;99.90;;;;;;5029657;28;20478;-52
2022/07/25 04:47:22;;;;;;;4.40;2.30;;;19.10;99.90;;;;;;5029988;28;20458;-51
2022/07/25 04:49:49;;;;;;;2.80;2.60;;;19.10;99.90;;;;;;5027362;28;20454;-51
2022/07/25 04:52:15;;;;;;;3.83;2.60;;;19.20;99.90;;;;;;5025244;28;21037;-51
2022/07/25 04:54:42;;;;;;;3.23;1.77;;;19.20;99.90;;;;;;5018274;28;20857;-52
2022/07/25 04:57:08;;;;;;;2.03;1.93;;;19.30;99.90;;;;;;5032606;28;20431;-52
2022/07/25 04:59:35;;;;;;;3.73;2.40;;;19.40;99.90;;;;;;5031533;28;20516;-52
2022/07/25 05:02:03;;;;;;;2.47;2.27;;;19.40;99.90;;;;;;5030685;28;20482;-52
2022/07/25 05:04:30;;;;;;;4.03;2.33;;;19.40;99.90;;;;;;5031035;28;20904;-52
2022/07/25 05:06:56;;;;;;;3.00;2.53;;;19.50;99.90;;;;;;5026192;28;20514;-51
2022/07/25 05:09:23;;;;;;;6.53;3.03;;;19.50;99.90;;;;;;5029882;28;20948;-51
2022/07/25 05:11:49;;;;;;;3.93;2.03;;;19.50;99.90;;;;;;5032080;28;20463;-51
2022/07/25 05:14:16;;;;;;;2.40;2.00;;;19.60;99.90;;;;;;5030559;28;20478;-52
2022/07/25 05:16:43;;;;;;;2.93;2.60;;;19.60;99.90;;;;;;5032655;28;20859;-51
2022/07/25 05:19:11;;;;;;;2.60;2.23;;;19.70;99.90;;;;;;5029828;28;20521;-52
2022/07/25 05:21:37;;;;;;;2.00;1.90;;;19.80;99.90;;;;;;5028436;28;20536;-52
2022/07/25 05:24:04;;;;;;;2.43;2.23;;;19.80;99.90;;;;;;5031243;28;20489;-51
2022/07/25 05:26:31;;;;;;;2.07;1.87;;;19.90;99.90;;;;;;5027742;28;20972;-52
2022/07/25 05:28:58;;;;;;;7.50;2.17;;;19.90;99.90;;;;;;5026603;28;20532;-52
2022/07/25 05:31:25;;;;;;;2.53;2.40;;;20.00;99.90;;;;;;5026690;28;20451;-52
2022/07/25 05:33:51;;;;;;;2.20;2.10;;;20.00;99.90;;;;;;5032678;28;20474;-52
2022/07/25 05:36:19;;;;;;;2.20;2.10;;;20.10;99.90;;;;;;5027615;28;20949;-52
2022/07/25 05:38:46;;;;;;;2.83;2.20;;;20.10;99.90;;;;;;5031099;28;20528;-51
2022/07/25 05:41:13;;;;;;;2.83;2.27;;;20.20;99.90;;;;;;5028733;28;20475;-53
2022/07/25 05:43:41;;;;;;;2.67;2.50;;;20.20;99.90;;;;;;5031763;28;20909;-52
2022/07/25 05:46:08;;;;;;;3.53;2.83;;;20.40;99.90;;;;;;5025268;28;20467;-50
2022/07/25 05:48:34;;;;;;;3.17;2.23;;;20.40;99.90;;;;;;5031987;28;20443;-52
2022/07/25 05:51:01;;;;;;;2.23;2.13;;;20.50;99.90;;;;;;5030016;28;20885;-51
2022/07/25 05:53:29;;;;;;;2.50;2.30;;;20.50;99.90;;;;;;5031139;28;20514;-51
2022/07/25 05:55:56;;;;;;;2.73;2.47;;;20.60;99.90;;;;;;5025094;28;20459;-52
2022/07/25 05:58:23;;;;;;;4.40;2.40;;;20.70;99.90;;;;;;5029271;28;21002;-51
2022/07/25 06:00:51;;;;;;;4.30;2.20;;;20.90;99.90;;;;;;5024626;28;20474;-51
2022/07/25 06:03:18;;;;;;;12.50;3.00;;;21.00;99.90;;;;;;5030257;28;20525;-57
2022/07/25 06:05:45;;;;;;;2.27;2.17;;;21.10;99.90;;;;;;5030947;28;20497;-51
2022/07/25 06:08:12;;;;;;;3.10;2.90;;;21.10;99.90;;;;;;5030898;28;20469;-52
2022/07/25 06:10:40;;;;;;;3.70;2.93;;;21.20;99.90;;;;;;5031304;28;20447;-52
2022/07/25 06:13:07;;;;;;;2.90;2.70;;;21.40;99.90;;;;;;5038901;28;20467;-52
2022/07/25 06:15:34;;;;;;;3.73;2.57;;;21.50;99.90;;;;;;5029294;28;20477;-52
2022/07/25 06:18:01;;;;;;;2.70;2.50;;;21.60;1.40;;;;;;5029356;28;20532;-52
2022/07/25 06:20:28;;;;;;;3.37;2.93;;;21.60;99.90;;;;;;5029988;28;20491;-53
2022/07/25 06:22:54;;;;;;;2.40;2.30;;;21.80;99.90;;;;;;5029525;28;20467;-52
2022/07/25 06:25:21;;;;;;;5.63;3.07;;;21.90;99.90;;;;;;5030625;28;20550;-51
2022/07/25 06:27:49;;;;;;;4.93;2.73;;;22.00;99.90;;;;;;5024800;28;20854;-52
2022/07/25 06:30:16;;;;;;;6.40;4.30;;;22.10;99.90;;;;;;5029286;28;20458;-52
2022/07/25 06:32:42;;;;;;;3.23;3.03;;;22.20;99.90;;;;;;5022843;28;20545;-51
2022/07/25 06:35:09;;;;;;;2.63;2.40;;;22.30;99.90;;;;;;5027360;28;20501;-57
2022/07/25 06:37:38;;;;;;;3.00;2.70;;;22.40;99.90;;;;;;5030109;28;20462;-51
2022/07/25 06:40:05;;;;;;;4.10;3.13;;;22.50;99.90;;;;;;5030581;28;20468;-52
2022/07/25 06:42:33;;;;;;;5.03;2.90;;;22.60;99.90;;;;;;5029199;28;20483;-51
2022/07/25 06:45:04;;;;;;;8.30;3.40;;;22.70;99.90;;;;;;5028383;28;21014;-51
2022/07/25 06:47:31;;;;;;;4.20;3.70;;;22.80;99.90;;;;;;5029445;28;21185;-51
2022/07/25 06:49:57;;;;;;;4.07;3.13;;;22.90;99.90;;;;;;5025203;28;20462;-52
2022/07/25 06:52:24;;;;;;;3.03;2.90;;;23.00;99.90;;;;;;5026045;28;20455;-51
2022/07/25 06:54:51;;;;;;;3.97;3.57;;;23.10;99.90;;;;;;5030112;28;20505;-52
2022/07/25 06:57:18;;;;;;;3.93;3.63;;;23.30;99.90;;;;;;5029880;28;20500;-52
2022/07/25 06:59:45;;;;;;;4.70;4.20;;;23.40;99.90;;;;;;5025315;28;20471;-51
2022/07/25 07:02:13;;;;;;;3.43;3.13;;;23.50;99.90;;;;;;5020990;28;20490;-52
2022/07/25 07:04:39;;;;;;;6.10;3.97;;;23.60;99.90;;;;;;5028815;28;20917;-51
2022/07/25 07:07:06;;;;;;;4.40;3.57;;;23.70;99.90;;;;;;5028535;28;20462;-52
2022/07/25 07:09:32;;;;;;;4.20;3.87;;;23.80;99.90;;;;;;5027808;28;20968;-51
2022/07/25 07:11:59;;;;;;;3.30;3.10;;;23.90;99.90;;;;;;5026034;28;20538;-51
2022/07/25 07:14:26;;;;;;;5.43;3.77;;;24.20;99.90;;;;;;5026032;28;20478;-52
2022/07/25 07:16:52;;;;;;;4.10;3.80;;;24.40;99.90;;;;;;5023394;28;21025;-51
2022/07/25 07:19:20;;;;;;;7.03;3.70;;;24.50;99.90;;;;;;5029857;28;21006;-52
2022/07/25 07:21:48;;;;;;;7.03;4.07;;;24.60;99.90;;;;;;5027351;28;20552;-52
2022/07/25 07:24:15;;;;;;;4.17;3.97;;;24.70;99.90;;;;;;5025021;28;20565;-52
2022/07/25 07:26:42;;;;;;;9.03;4.20;;;24.70;99.90;;;;;;5026059;28;20508;-52
2022/07/25 07:29:09;;;;;;;10.00;4.23;;;24.90;99.90;;;;;;5028074;28;20469;-53
2022/07/25 07:31:36;;;;;;;6.20;4.10;;;24.90;99.90;;;;;;5026854;28;20450;-52
2022/07/25 07:34:02;;;;;;;4.93;4.50;;;25.00;99.90;;;;;;5028293;28;20482;-52
2022/07/25 07:36:30;;;;;;;5.00;4.43;;;25.00;99.90;;;;;;5028440;28;20924;-50
2022/07/25 07:38:57;;;;;;;4.53;4.17;;;25.20;99.90;;;;;;5023809;28;20458;-52
2022/07/25 07:41:23;;;;;;;4.90;4.50;;;25.30;99.90;;;;;;5023562;28;20520;-51
2022/07/25 07:43:50;;;;;;;5.67;5.10;;;25.50;99.90;;;;;;5030890;28;20956;-52
2022/07/25 07:46:17;;;;;;;9.30;5.40;;;25.60;99.90;;;;;;5026904;28;20463;-51
2022/07/25 07:48:44;;;;;;;4.27;3.97;;;25.70;99.90;;;;;;5029607;28;20463;-52
2022/07/25 07:51:10;;;;;;;7.20;4.27;;;25.70;99.90;;;;;;5030328;28;20881;-51
2022/07/25 07:56:23;;;;;;;5.00;4.60;;;26.00;99.90;;;;;;5029907;28;20454;-51
2022/07/25 07:58:50;;;;;;;5.57;4.60;;;26.00;99.90;;;;;;5026191;28;20854;-52
2022/07/25 08:01:16;;;;;;;4.73;4.40;;;26.20;99.90;;;;;;5023942;28;20533;-52
2022/07/25 08:03:43;;;;;;;13.90;4.70;;;26.20;99.90;;;;;;5027608;28;21074;-51
2022/07/25 08:06:09;;;;;;;4.50;4.10;;;26.30;99.90;;;;;;5028579;28;20516;-51
2022/07/25 08:08:37;;;;;;;7.53;4.53;;;26.40;99.90;;;;;;5027921;28;20843;-51
2022/07/25 08:11:05;;;;;;;5.47;5.03;;;26.50;99.90;;;;;;5027521;28;20528;-51
2022/07/25 08:13:33;;;;;;;6.93;4.60;;;26.60;99.90;;;;;;5028604;28;20535;-53
2022/07/25 08:16:02;;;;;;;5.50;4.27;;;26.70;99.90;;;;;;5024724;28;20465;-52
2022/07/25 08:18:30;;;;;;;5.80;4.93;;;26.90;99.90;;;;;;5026113;28;20533;-51
2022/07/25 08:20:57;;;;;;;5.33;4.93;;;27.00;99.90;;;;;;5031217;28;20467;-52
2022/07/25 08:23:26;;;;;;;6.23;5.30;;;27.10;99.90;;;;;;5031454;28;20831;-52
2022/07/25 08:25:54;;;;;;;6.00;5.10;;;27.20;99.90;;;;;;5030350;28;20493;-52
2022/07/25 08:28:21;;;;;;;5.03;4.53;;;27.50;99.90;;;;;;5025791;28;20929;-51
2022/07/25 08:30:47;;;;;;;7.57;4.50;;;27.50;99.90;;;;;;5027835;28;20512;-50
2022/07/25 08:33:15;;;;;;;14.63;5.90;;;27.60;99.90;;;;;;5029253;28;22065;-51
2022/07/25 08:35:46;;;;;;;5.23;4.30;;;27.70;99.90;;;;;;5030382;28;20469;-51
2022/07/25 08:38:13;;;;;;;11.20;5.43;;;27.80;99.90;;;;;;5033417;28;20473;-51
2022/07/25 08:40:40;;;;;;;5.17;4.77;;;27.80;99.90;;;;;;5030143;28;20516;-51
2022/07/25 08:43:12;;;;;;;5.63;4.93;;;27.90;99.90;;;;;;5032015;28;20574;-52
2022/07/25 08:45:43;;;;;;;8.10;4.73;;;27.90;99.90;;;;;;5025373;28;20486;-51
2022/07/25 08:48:10;;;;;;;5.27;4.77;;;28.00;99.90;;;;;;5031259;28;20977;-52
2022/07/25 08:50:38;;;;;;;6.67;5.70;;;28.20;99.90;;;;;;5029891;28;20517;-52
2022/07/25 08:53:05;;;;;;;10.53;5.80;;;28.20;99.90;;;;;;5028045;28;20508;-52
2022/07/25 08:55:32;;;;;;;6.17;5.70;;;28.40;99.90;;;;;;5028487;28;20471;-52
2022/07/25 08:57:59;;;;;;;7.00;6.40;;;28.50;99.90;;;;;;5026335;28;20498;-51
2022/07/25 09:00:28;;;;;;;5.23;4.83;;;28.60;99.90;;;;;;5031308;28;20534;-52
2022/07/25 09:02:57;;;;;;;7.43;5.30;;;28.70;99.90;;;;;;5028805;28;20486;-54
2022/07/25 09:05:25;;;;;;;14.43;5.20;;;28.80;99.90;;;;;;5025002;28;20463;-52
2022/07/25 09:07:52;;;;;;;7.23;5.70;;;28.90;99.90;;;;;;5028845;28;20859;-52
2022/07/25 09:10:22;;;;;;;6.80;6.10;;;29.10;99.90;;;;;;5030437;28;20513;-52
2022/07/25 09:12:54;;;;;;;7.67;5.90;;;29.40;99.90;;;;;;5025979;28;20948;-52
2022/07/25 09:15:28;;;;;;;11.37;6.20;;;29.80;99.90;;;;;;5031395;28;20513;-52
2022/07/25 09:17:55;;;;;;;5.00;4.70;;;30.10;99.90;;;;;;5026991;28;20455;-52
2022/07/25 09:20:22;;;;;;;10.43;5.57;;;30.20;99.90;;;;;;5031253;28;20455;-53
2022/07/25 09:22:49;;;;;;;6.50;5.90;;;30.00;99.90;;;;;;5028980;28;20548;-52
2022/07/25 09:25:21;;;;;;;7.63;6.00;;;30.00;99.90;;;;;;5028418;28;20459;-52
2022/07/25 09:27:47;;;;;;;6.20;5.70;;;30.00;99.90;;;;;;5028923;28;20589;-51
2022/07/25 09:30:15;;;;;;;7.00;5.93;;;30.00;99.90;;;;;;5029366;28;20455;-52
2022/07/25 09:32:43;;;;;;;6.17;5.60;;;30.00;99.90;;;;;;5022440;28;20953;-52
2022/07/25 09:35:10;;;;;;;6.47;5.87;;;30.40;99.90;;;;;;5029402;28;20454;-52
2022/07/25 09:37:36;;;;;;;8.57;6.47;;;30.70;99.90;;;;;;5031467;28;20467;-52
2022/07/25 09:40:12;;;;;;;6.50;5.90;;;30.80;99.90;;;;;;5032236;28;20516;-52
2022/07/25 09:42:39;;;;;;;17.03;5.73;;;30.70;99.90;;;;;;5030833;28;20492;-52
2022/07/25 09:45:10;;;;;;;7.20;5.97;;;30.60;99.90;;;;;;5028142;28;20965;-51
2022/07/25 09:47:39;;;;;;;7.80;5.90;;;30.60;99.90;;;;;;5030865;28;20458;-50
2022/07/25 09:50:08;;;;;;;6.37;5.77;;;30.70;99.90;;;;;;5029199;28;20455;-51
2022/07/25 09:52:35;;;;;;;7.37;6.50;;;30.80;99.90;;;;;;5028154;28;21022;-52
2022/07/25 09:55:05;;;;;;;7.53;5.80;;;30.90;99.90;;;;;;5029915;28;20485;-51
2022/07/25 09:57:31;;;;;;;7.53;6.83;;;30.90;99.90;;;;;;5030069;28;20455;-51
2022/07/25 09:59:59;;;;;;;9.03;6.73;;;30.90;99.90;;;;;;5029550;28;20866;-51
2022/07/25 10:02:43;;;;;;;7.03;6.33;;;31.00;99.90;;;;;;5028316;28;20490;-52
2022/07/25 10:05:15;;;;;;;15.60;6.07;;;31.00;99.90;;;;;;5028333;28;20475;-51
2022/07/25 10:07:46;;;;;;;19.77;6.80;;;31.20;99.90;;;;;;5009877;23;20501;-53
2022/07/25 10:10:24;;;;;;;6.70;6.20;;;31.40;99.90;;;;;;4992009;28;20460;-53
2022/07/25 10:13:05;;;;;;;8.50;7.63;;;31.50;99.90;;;;;;4985554;28;20476;-53
2022/07/25 10:15:55;;;;;;;13.17;6.47;;;31.60;99.90;;;;;;4985986;28;20471;-53
2022/07/25 10:18:24;;;;;;;9.00;6.37;;;31.80;99.90;;;;;;4957410;28;20462;-53
2022/07/25 10:20:54;;;;;;;7.43;6.87;;;31.90;99.90;;;;;;4972477;28;21049;-53
2022/07/25 10:23:23;;;;;;;7.33;6.73;;;31.90;99.90;;;;;;4964707;28;20617;-53
2022/07/25 10:26:04;;;;;;;8.10;6.27;;;31.90;99.90;;;;;;4969989;28;20454;-53
2022/07/25 10:28:40;;;;;;;7.47;6.77;;;32.10;99.90;;;;;;4971828;28;20532;-54
2022/07/25 10:31:18;;;;;;;7.43;6.73;;;31.90;99.90;;;;;;4971814;28;20929;-53
2022/07/25 10:33:51;;;;;;;9.77;6.53;;;32.00;99.90;;;;;;4971096;28;20465;-53
2022/07/25 10:36:21;;;;;;;7.03;6.37;;;31.80;99.90;;;;;;4968456;28;21214;-54
2022/07/25 10:38:51;;;;;;;7.10;6.50;;;32.00;99.90;;;;;;4963272;28;20476;-53
2022/07/25 10:41:17;;;;;;;8.40;6.90;;;32.20;99.90;;;;;;4970497;28;20469;-54
2022/07/25 10:43:46;;;;;;;9.97;7.30;;;32.20;99.90;;;;;;4971195;28;21086;-54
2022/07/25 10:46:14;;;;;;;7.43;6.37;;;32.30;99.90;;;;;;4968417;28;20512;-54
2022/07/25 10:48:41;;;;;;;6.80;6.30;;;32.30;99.90;;;;;;4969861;28;20469;-54
2022/07/25 10:51:10;;;;;;;12.80;6.37;;;32.30;99.90;;;;;;4969171;28;20828;-53
2022/07/25 10:53:48;;;;;;;8.03;6.00;;;32.50;99.90;;;;;;4971543;28;20492;-53
2022/07/25 10:56:18;;;;;;;7.00;6.17;;;32.60;99.90;;;;;;4964305;28;20461;-52
2022/07/25 10:58:48;;;;;;;6.90;6.30;;;32.70;99.90;;;;;;4970677;28;20457;-53
2022/07/25 11:01:20;;;;;;;8.00;7.30;;;32.70;99.90;;;;;;4966970;28;20458;-53
2022/07/25 11:03:47;;;;;;;6.97;6.27;;;32.70;99.90;;;;;;4963297;28;20526;-53
2022/07/25 11:06:15;;;;;;;6.10;5.70;;;32.80;99.90;;;;;;4969511;28;21245;-54
2022/07/25 11:08:44;;;;;;;6.93;6.33;;;32.80;99.90;;;;;;4972704;28;20484;-52
2022/07/25 11:11:11;;;;;;;8.40;6.33;;;33.00;99.90;;;;;;4970773;28;20472;-54
2022/07/25 11:13:38;;;;;;;8.63;7.73;;;33.10;99.90;;;;;;4970700;28;20971;-53
2022/07/25 11:16:06;;;;;;;8.87;6.67;;;33.20;99.90;;;;;;4968577;28;21077;-53
2022/07/25 11:18:35;;;;;;;7.20;6.60;;;33.20;99.90;;;;;;4972130;28;20850;-53
2022/07/25 11:21:04;;;;;;;8.33;6.77;;;33.20;99.90;;;;;;4968197;28;20450;-53
2022/07/25 11:23:31;;;;;;;19.70;6.63;;;33.20;99.90;;;;;;4971320;28;20843;-52
2022/07/25 11:26:07;;;;;;;8.00;7.30;;;33.30;99.90;;;;;;4966726;28;20548;-52
2022/07/25 11:28:41;;;;;;;7.83;6.47;;;33.30;99.90;;;;;;4975508;28;20884;-53
2022/07/25 11:31:09;;;;;;;6.80;6.20;;;33.20;99.90;;;;;;4967249;28;20465;-52
2022/07/25 11:33:36;;;;;;;6.97;6.27;;;33.40;99.90;;;;;;4972841;28;20441;-52
2022/07/25 11:36:04;;;;;;;8.63;6.70;;;33.60;99.90;;;;;;4969895;28;20564;-52
2022/07/25 11:38:31;;;;;;;9.10;6.53;;;33.50;99.90;;;;;;4970315;28;20500;-52
2022/07/25 11:40:58;;;;;;;6.43;5.93;;;33.10;99.90;;;;;;4965728;28;20436;-53
2022/07/25 11:43:26;;;;;;;7.27;6.67;;;33.10;99.90;;;;;;4969618;28;20609;-51
2022/07/25 11:45:58;;;;;;;7.00;6.50;;;33.20;99.90;;;;;;4970328;28;21031;-52
2022/07/25 11:48:31;;;;;;;7.97;6.43;;;33.30;99.90;;;;;;4971652;28;20465;-52
2022/07/25 11:50:58;;;;;;;6.70;6.10;;;33.50;99.90;;;;;;4971094;28;21157;-53
2022/07/25 11:53:25;;;;;;;8.70;6.53;;;33.50;99.90;;;;;;4971562;28;20797;-52
2022/07/25 11:55:52;;;;;;;6.93;6.20;;;33.60;99.90;;;;;;4973285;28;20462;-51
2022/07/25 11:58:19;;;;;;;6.57;5.97;;;33.70;99.90;;;;;;4973905;28;20460;-52
2022/07/25 12:00:48;;;;;;;6.97;6.27;;;33.70;99.90;;;;;;4980465;28;20473;-55
2022/07/25 12:03:17;;;;;;;7.33;6.70;;;33.60;99.90;;;;;;4973758;28;20484;-54
2022/07/25 12:05:44;;;;;;;6.80;6.20;;;33.40;99.90;;;;;;4971534;28;20472;-53
2022/07/25 12:08:11;;;;;;;7.03;6.43;;;33.20;99.90;;;;;;4973287;28;20462;-54
2022/07/25 12:10:40;;;;;;;6.77;6.23;;;33.10;99.90;;;;;;4974619;28;20833;-53
2022/07/25 12:13:08;;;;;;;6.27;5.77;;;33.20;99.90;;;;;;4973151;28;20484;-54
2022/07/25 12:15:37;;;;;;;6.80;6.10;;;33.40;99.90;;;;;;4980465;28;20516;-53
2022/07/25 12:18:08;;;;;;;6.70;6.10;;;33.30;99.90;;;;;;4971704;28;20902;-53
2022/07/25 12:20:37;;;;;;;7.63;6.60;;;33.30;99.90;;;;;;4975791;28;20476;-54
2022/07/25 12:23:06;;;;;;;6.33;5.83;;;33.50;99.90;;;;;;4985990;28;20480;-53
2022/07/25 12:25:33;;;;;;;6.67;6.17;;;33.80;99.90;;;;;;4978795;28;20465;-52
2022/07/25 12:28:00;;;;;;;7.30;6.53;;;33.90;99.90;;;;;;4972929;28;20485;-53
2022/07/25 12:30:29;;;;;;;7.63;6.93;;;33.90;99.90;;;;;;4974081;28;20496;-54
2022/07/25 12:32:56;;;;;;;10.70;5.87;;;33.90;99.90;;;;;;4972941;28;20465;-53
2022/07/25 12:35:25;;;;;;;8.60;6.60;;;33.90;99.90;;;;;;4973899;28;20878;-53
2022/07/25 12:37:52;;;;;;;6.97;6.37;;;34.00;99.90;;;;;;4978983;28;20468;-53
2022/07/25 12:40:20;;;;;;;6.57;6.07;;;34.00;99.90;;;;;;4980268;28;20464;-53
2022/07/25 12:42:47;;;;;;;6.30;5.80;;;34.10;99.90;;;;;;4979578;28;20484;-54
2022/07/25 12:45:16;;;;;;;6.93;6.10;;;34.00;99.90;;;;;;4973443;28;20461;-52
2022/07/25 12:47:43;;;;;;;5.37;4.97;;;33.90;99.90;;;;;;4968685;28;20493;-53
2022/07/25 12:50:10;;;;;;;11.03;5.93;;;33.70;99.90;;;;;;4972775;28;20469;-54